createdAt,value
2018-03-28T00:01:04.912Z,14.70
2018-03-28T00:03:32.587Z,14.70
2018-03-28T00:06:00.961Z,14.70
2018-03-28T00:08:28.626Z,14.60
2018-03-28T00:10:56.293Z,14.70
2018-03-28T00:13:24.628Z,14.70
2018-03-28T00:15:52.658Z,14.60
2018-03-28T00:18:20.989Z,14.60
2018-03-28T00:20:48.558Z,14.60
2018-03-28T00:23:16.138Z,14.60
2018-03-28T00:25:43.711Z,14.60
2018-03-28T00:28:12.046Z,14.60
2018-03-28T00:30:39.638Z,14.60
2018-03-28T00:33:07.203Z,14.60
2018-03-28T00:35:35.541Z,14.60
2018-03-28T00:38:03.103Z,14.60
2018-03-28T00:40:30.927Z,14.60
2018-03-28T00:42:58.512Z,14.60
2018-03-28T00:45:26.336Z,14.60
2018-03-28T00:47:54.198Z,14.60
2018-03-28T00:50:21.874Z,14.60
2018-03-28T00:52:50.240Z,14.60
2018-03-28T00:55:18.016Z,14.60
2018-03-28T00:57:45.880Z,14.60
2018-03-28T01:00:14.268Z,14.60
2018-03-28T01:02:42.600Z,14.60
2018-03-28T01:05:10.166Z,14.60
2018-03-28T01:07:37.767Z,14.60
2018-03-28T01:10:06.143Z,14.60
2018-03-28T01:12:34.528Z,14.60
2018-03-28T01:15:02.884Z,14.60
2018-03-28T01:17:30.454Z,14.60
2018-03-28T01:19:58.125Z,14.60
2018-03-28T01:22:26.506Z,14.60
2018-03-28T01:24:54.852Z,14.50
2018-03-28T01:27:23.644Z,14.50
2018-03-28T01:29:51.235Z,14.60
2018-03-28T01:32:19.618Z,14.50
2018-03-28T01:34:47.952Z,14.50
2018-03-28T01:37:15.557Z,14.50
2018-03-28T01:39:43.938Z,14.50
2018-03-28T01:42:12.269Z,14.50
2018-03-28T01:44:39.846Z,14.50
2018-03-28T01:47:07.425Z,14.50
2018-03-28T01:49:36.502Z,14.40
2018-03-28T01:52:04.077Z,14.40
2018-03-28T01:54:31.646Z,14.50
2018-03-28T01:56:59.219Z,14.40
2018-03-28T01:59:27.594Z,14.40
2018-03-28T02:01:55.252Z,14.40
2018-03-28T02:04:23.125Z,14.50
2018-03-28T02:06:51.544Z,14.50
2018-03-28T02:09:19.882Z,14.40
2018-03-28T02:11:47.463Z,14.40
2018-03-28T02:14:15.803Z,14.50
2018-03-28T02:16:43.378Z,14.50
2018-03-28T02:19:11.053Z,14.50
2018-03-28T02:21:39.396Z,14.40
2018-03-28T02:24:06.979Z,14.40
2018-03-28T02:26:34.652Z,14.40
2018-03-28T02:29:02.322Z,14.50
2018-03-28T02:31:29.906Z,14.50
2018-03-28T02:33:57.537Z,14.40
2018-03-28T02:36:25.884Z,14.40
2018-03-28T02:38:53.703Z,14.40
2018-03-28T02:41:21.279Z,14.40
2018-03-28T02:43:48.863Z,14.40
2018-03-28T02:46:16.474Z,14.40
2018-03-28T02:48:44.829Z,14.40
2018-03-28T02:51:12.419Z,14.40
2018-03-28T02:53:40.759Z,14.40
2018-03-28T02:56:08.341Z,14.40
2018-03-28T02:58:36.012Z,14.40
2018-03-28T03:01:04.396Z,14.40
2018-03-28T03:03:32.777Z,14.40
2018-03-28T03:06:01.155Z,14.40
2018-03-28T03:08:29.534Z,14.40
2018-03-28T03:10:57.914Z,14.40
2018-03-28T03:13:26.295Z,14.40
2018-03-28T03:15:54.647Z,14.40
2018-03-28T03:18:22.759Z,14.30
2018-03-28T03:20:51.178Z,14.40
2018-03-28T03:23:18.893Z,14.30
2018-03-28T03:25:47.239Z,14.40
2018-03-28T03:28:14.830Z,14.40
2018-03-28T03:30:42.417Z,14.40
2018-03-28T03:33:09.992Z,14.40
2018-03-28T03:35:37.569Z,14.40
2018-03-28T03:38:05.168Z,14.40
2018-03-28T03:40:32.840Z,14.40
2018-03-28T03:43:01.219Z,14.30
2018-03-28T03:45:29.657Z,14.30
2018-03-28T03:47:57.230Z,14.30
2018-03-28T03:50:24.816Z,14.40
2018-03-28T03:52:52.657Z,14.30
2018-03-28T03:55:20.255Z,14.30
2018-03-28T03:57:48.634Z,14.30
2018-03-28T04:00:16.976Z,14.30
2018-03-28T04:02:44.554Z,14.30
2018-03-28T04:05:12.132Z,14.30
2018-03-28T04:07:40.519Z,14.30
2018-03-28T04:10:08.931Z,14.30
2018-03-28T04:12:36.514Z,14.30
2018-03-28T04:15:04.140Z,14.30
2018-03-28T04:17:31.777Z,14.30
2018-03-28T04:20:00.112Z,14.30
2018-03-28T04:22:27.688Z,14.30
2018-03-28T04:24:55.257Z,14.30
2018-03-28T04:27:24.347Z,14.30
2018-03-28T04:29:52.179Z,14.30
2018-03-28T04:32:20.311Z,14.30
2018-03-28T04:34:47.895Z,14.30
2018-03-28T04:37:16.233Z,14.30
2018-03-28T04:39:44.573Z,14.20
2018-03-28T04:42:12.254Z,14.20
2018-03-28T04:44:39.984Z,14.20
2018-03-28T04:47:07.565Z,14.20
2018-03-28T04:49:35.184Z,14.20
2018-03-28T04:52:03.565Z,14.30
2018-03-28T04:54:33.082Z,14.30
2018-03-28T04:57:00.752Z,14.30
2018-03-28T04:59:28.406Z,14.20
2018-03-28T05:01:56.756Z,14.30
2018-03-28T05:04:25.045Z,14.20
2018-03-28T05:06:53.453Z,14.30
2018-03-28T05:09:21.097Z,14.20
2018-03-28T05:11:49.492Z,14.20
2018-03-28T05:14:17.140Z,14.20
2018-03-28T05:16:45.516Z,14.20
2018-03-28T05:19:14.210Z,14.20
2018-03-28T05:21:42.542Z,14.20
2018-03-28T05:24:10.274Z,14.20
2018-03-28T05:26:37.917Z,14.20
2018-03-28T05:29:06.288Z,14.20
2018-03-28T05:31:33.958Z,14.20
2018-03-28T05:34:02.301Z,14.20
2018-03-28T05:36:29.910Z,14.20
2018-03-28T05:38:59.455Z,14.20
2018-03-28T05:41:27.064Z,14.20
2018-03-28T05:43:54.727Z,14.20
2018-03-28T05:46:23.178Z,14.20
2018-03-28T05:48:51.204Z,14.20
2018-03-28T05:51:18.778Z,14.20
2018-03-28T05:53:46.415Z,14.20
2018-03-28T05:56:14.749Z,14.20
2018-03-28T05:58:42.414Z,14.20
2018-03-28T06:01:10.248Z,14.20
2018-03-28T06:03:37.829Z,14.20
2018-03-28T06:06:05.759Z,14.10
2018-03-28T06:08:35.640Z,14.20
2018-03-28T06:11:03.320Z,14.10
2018-03-28T06:13:33.140Z,14.10
2018-03-28T06:16:01.480Z,14.20
2018-03-28T06:18:29.103Z,14.10
2018-03-28T06:20:56.875Z,14.10
2018-03-28T06:23:25.757Z,14.10
2018-03-28T06:25:54.316Z,14.10
2018-03-28T06:28:25.773Z,14.10
2018-03-28T06:30:54.751Z,14.10
2018-03-28T06:33:22.790Z,14.10
2018-03-28T06:35:50.397Z,14.10
2018-03-28T06:38:18.733Z,14.10
2018-03-28T06:40:46.350Z,14.10
2018-03-28T06:43:14.689Z,14.10
2018-03-28T06:45:42.281Z,14.10
2018-03-28T06:48:10.623Z,14.10
2018-03-28T06:50:38.218Z,14.10
2018-03-28T06:53:06.560Z,14.10
2018-03-28T06:55:34.158Z,14.10
2018-03-28T06:58:02.556Z,14.10
2018-03-28T07:00:30.213Z,14.10
2018-03-28T07:02:58.581Z,14.10
2018-03-28T07:05:26.970Z,14.10
2018-03-28T07:07:55.337Z,14.10
2018-03-28T07:10:23.101Z,14.10
2018-03-28T07:12:50.673Z,14.10
2018-03-28T07:15:19.029Z,14.10
2018-03-28T07:17:46.611Z,14.10
2018-03-28T07:20:14.966Z,14.10
2018-03-28T07:22:44.041Z,14.10
2018-03-28T07:25:11.621Z,14.10
2018-03-28T07:27:39.222Z,14.10
2018-03-28T07:30:07.705Z,14.10
2018-03-28T07:32:35.321Z,14.10
2018-03-28T07:35:02.889Z,14.10
2018-03-28T07:37:30.462Z,14.10
2018-03-28T07:39:58.046Z,14.10
2018-03-28T07:42:26.394Z,14.10
2018-03-28T07:44:55.525Z,14.10
2018-03-28T07:47:23.178Z,14.10
2018-03-28T07:49:51.526Z,14.10
2018-03-28T07:52:19.098Z,14.10
2018-03-28T07:54:46.766Z,14.10
2018-03-28T07:57:14.342Z,14.10
2018-03-28T07:59:42.708Z,14.10
2018-03-28T08:02:10.283Z,14.10
2018-03-28T08:04:38.972Z,14.10
2018-03-28T08:07:08.157Z,14.10
2018-03-28T08:09:35.866Z,14.10
2018-03-28T08:12:04.239Z,14.10
2018-03-28T08:14:31.985Z,14.10
2018-03-28T08:17:00.466Z,14.10
2018-03-28T08:19:28.802Z,14.10
2018-03-28T08:21:56.370Z,14.10
2018-03-28T08:24:24.160Z,14.10
2018-03-28T08:26:52.830Z,14.10
2018-03-28T08:29:20.400Z,14.10
2018-03-28T08:31:48.083Z,14.10
2018-03-28T08:34:16.424Z,14.10
2018-03-28T08:36:43.996Z,14.10
2018-03-28T08:39:11.716Z,14.10
2018-03-28T08:41:39.336Z,14.10
2018-03-28T08:44:07.720Z,14.10
2018-03-28T08:46:36.089Z,14.10
2018-03-28T08:49:03.669Z,14.10
2018-03-28T08:51:32.060Z,14.20
2018-03-28T08:53:59.713Z,14.10
2018-03-28T08:56:27.375Z,14.20
2018-03-28T08:58:55.745Z,14.20
2018-03-28T09:01:24.321Z,14.20
2018-03-28T09:03:52.729Z,14.10
2018-03-28T09:06:20.362Z,14.10
2018-03-28T09:08:48.038Z,14.20
2018-03-28T09:11:16.410Z,14.20
2018-03-28T09:13:44.826Z,14.20
2018-03-28T09:16:12.401Z,14.20
2018-03-28T09:18:40.008Z,14.20
2018-03-28T09:21:07.604Z,14.20
2018-03-28T09:23:35.176Z,14.10
2018-03-28T09:26:02.845Z,14.10
2018-03-28T09:28:30.483Z,14.10
2018-03-28T09:30:58.137Z,14.10
2018-03-28T09:33:26.513Z,14.10
2018-03-28T09:35:54.897Z,14.10
2018-03-28T09:38:23.268Z,14.10
2018-03-28T09:40:51.621Z,14.10
2018-03-28T09:43:20.592Z,14.10
2018-03-28T09:45:48.171Z,14.10
2018-03-28T09:48:15.763Z,14.10
2018-03-28T09:50:44.124Z,14.10
2018-03-28T09:53:11.690Z,14.10
2018-03-28T09:55:39.271Z,14.10
2018-03-28T09:58:07.661Z,14.10
2018-03-28T10:00:35.232Z,14.10
2018-03-28T10:03:08.477Z,14.10
2018-03-28T10:05:38.982Z,14.10
2018-03-28T10:08:06.590Z,14.10
2018-03-28T10:10:34.930Z,14.10
2018-03-28T10:13:02.526Z,14.10
2018-03-28T10:15:30.202Z,14.10
2018-03-28T10:17:58.547Z,14.10
2018-03-28T10:20:26.133Z,14.10
2018-03-28T10:22:54.492Z,14.10
2018-03-28T10:25:22.297Z,14.10
2018-03-28T10:27:49.869Z,14.10
2018-03-28T10:30:17.496Z,14.10
2018-03-28T10:32:45.166Z,14.10
2018-03-28T10:35:13.570Z,14.10
2018-03-28T10:37:41.889Z,14.10
2018-03-28T10:40:09.469Z,14.10
2018-03-28T10:42:37.046Z,14.10
2018-03-28T10:45:05.426Z,14.10
2018-03-28T10:47:33.921Z,14.10
2018-03-28T10:50:01.574Z,14.10
2018-03-28T10:52:29.935Z,14.20
2018-03-28T10:54:57.524Z,14.20
2018-03-28T10:57:25.866Z,14.20
2018-03-28T10:59:54.586Z,14.20
2018-03-28T11:02:23.170Z,14.20
2018-03-28T11:04:51.524Z,14.30
2018-03-28T11:07:19.216Z,14.20
2018-03-28T11:09:47.585Z,14.30
2018-03-28T11:12:15.930Z,14.30
2018-03-28T11:14:43.532Z,14.30
2018-03-28T11:17:11.869Z,14.30
2018-03-28T11:19:39.464Z,14.30
2018-03-28T11:22:07.806Z,14.40
2018-03-28T11:24:35.386Z,14.30
2018-03-28T11:27:02.960Z,14.40
2018-03-28T11:29:30.526Z,14.40
2018-03-28T11:31:58.867Z,14.40
2018-03-28T11:34:26.459Z,14.40
2018-03-28T11:36:54.330Z,14.40
2018-03-28T11:39:21.990Z,14.40
2018-03-28T11:41:49.566Z,14.40
2018-03-28T11:44:17.897Z,14.40
2018-03-28T11:46:45.491Z,14.40
2018-03-28T11:49:13.837Z,14.50
2018-03-28T11:51:41.401Z,14.40
2018-03-28T11:54:09.018Z,14.50
2018-03-28T11:56:36.605Z,14.40
2018-03-28T11:59:04.235Z,14.40
2018-03-28T12:01:34.571Z,14.50
2018-03-28T12:04:02.169Z,14.40
2018-03-28T12:06:29.773Z,14.50
2018-03-28T12:08:58.123Z,14.50
2018-03-28T12:11:25.713Z,14.50
2018-03-28T12:13:54.713Z,14.50
2018-03-28T12:16:23.159Z,14.50
2018-03-28T12:18:50.733Z,14.50
2018-03-28T12:21:18.410Z,14.50
2018-03-28T12:23:46.797Z,14.50
2018-03-28T12:26:15.128Z,14.50
2018-03-28T12:28:42.729Z,14.50
2018-03-28T12:31:11.064Z,14.50
2018-03-28T12:33:38.638Z,14.50
2018-03-28T12:36:06.231Z,14.50
2018-03-28T12:38:33.899Z,14.50
2018-03-28T12:41:02.243Z,14.50
2018-03-28T12:43:30.178Z,14.50
2018-03-28T12:45:57.839Z,14.50
2018-03-28T12:48:25.469Z,14.50
2018-03-28T12:50:54.134Z,14.60
2018-03-28T12:53:23.727Z,14.60
2018-03-28T12:55:51.334Z,14.60
2018-03-28T12:58:19.678Z,14.60
2018-03-28T13:00:47.370Z,14.60
2018-03-28T13:03:15.720Z,14.60
2018-03-28T13:05:43.315Z,14.60
2018-03-28T13:08:11.667Z,14.50
2018-03-28T13:10:39.236Z,14.60
2018-03-28T13:13:06.815Z,14.50
2018-03-28T13:15:35.157Z,14.60
2018-03-28T13:18:02.810Z,14.50
2018-03-28T13:20:30.414Z,14.50
2018-03-28T13:22:58.772Z,14.50
2018-03-28T13:25:26.451Z,14.50
2018-03-28T13:27:54.535Z,14.50
2018-03-28T13:30:24.202Z,14.50
2018-03-28T13:32:51.812Z,14.50
2018-03-28T13:35:20.186Z,14.50
2018-03-28T13:37:48.900Z,14.50
2018-03-28T13:40:16.683Z,14.50
2018-03-28T13:42:44.434Z,14.50
2018-03-28T13:45:12.039Z,14.50
2018-03-28T13:47:39.654Z,14.50
2018-03-28T13:50:07.505Z,14.50
2018-03-28T13:52:35.901Z,14.50
2018-03-28T13:55:03.541Z,14.50
2018-03-28T13:57:31.930Z,14.50
2018-03-28T13:59:59.596Z,14.50
2018-03-28T14:02:27.407Z,14.50
2018-03-28T14:04:55.732Z,14.50
2018-03-28T14:07:25.253Z,14.50
2018-03-28T14:09:53.304Z,14.50
2018-03-28T14:12:21.867Z,14.50
2018-03-28T14:14:49.585Z,14.50
2018-03-28T14:17:17.242Z,14.50
2018-03-28T14:19:44.817Z,14.50
2018-03-28T14:22:12.429Z,14.50
2018-03-28T14:24:40.780Z,14.50
2018-03-28T14:27:08.371Z,14.50
2018-03-28T14:29:36.751Z,14.50
2018-03-28T14:32:04.475Z,14.50
2018-03-28T14:34:32.078Z,14.50
2018-03-28T14:36:59.642Z,14.50
2018-03-28T14:39:27.978Z,14.50
2018-03-28T14:41:55.587Z,14.50
2018-03-28T14:44:24.977Z,14.50
2018-03-28T14:46:52.847Z,14.50
2018-03-28T14:49:20.492Z,14.50
2018-03-28T14:51:48.191Z,14.50
2018-03-28T14:54:16.559Z,14.50
2018-03-28T14:56:44.902Z,14.50
2018-03-28T14:59:12.504Z,14.50
2018-03-28T15:01:40.849Z,14.50
2018-03-28T15:04:08.440Z,14.50
2018-03-28T15:06:36.821Z,14.50
2018-03-28T15:09:08.173Z,14.40
2018-03-28T15:11:36.866Z,14.40
2018-03-28T15:14:05.245Z,14.40
2018-03-28T15:16:33.587Z,14.40
2018-03-28T15:19:01.174Z,14.40
2018-03-28T15:21:29.560Z,14.40
2018-03-28T15:23:57.931Z,14.40
2018-03-28T15:26:25.681Z,14.40
2018-03-28T15:28:53.340Z,14.40
2018-03-28T15:31:21.078Z,14.60
2018-03-28T15:33:48.692Z,15.00
2018-03-28T15:36:17.075Z,15.60
2018-03-28T15:38:45.439Z,15.80
2018-03-28T15:41:13.013Z,15.80
2018-03-28T15:43:41.524Z,16.30
2018-03-28T15:46:09.109Z,16.30
2018-03-28T15:48:36.691Z,16.60
2018-03-28T15:51:04.295Z,16.70
2018-03-28T15:53:31.929Z,16.80
2018-03-28T15:55:59.504Z,17.10
2018-03-28T15:58:27.851Z,17.30
2018-03-28T16:00:55.431Z,17.30
2018-03-28T16:03:23.077Z,17.50
2018-03-28T16:05:50.651Z,17.60
2018-03-28T16:08:18.229Z,17.60
2018-03-28T16:10:46.705Z,17.80
2018-03-28T16:13:15.108Z,17.90
2018-03-28T16:15:43.445Z,18.00
2018-03-28T16:18:11.135Z,18.00
2018-03-28T16:20:39.637Z,18.20
2018-03-28T16:23:07.214Z,18.20
2018-03-28T16:25:34.801Z,18.30
2018-03-28T16:28:02.407Z,18.30
2018-03-28T16:30:30.870Z,18.30
2018-03-28T16:32:58.440Z,18.20
2018-03-28T16:35:26.782Z,18.40
2018-03-28T16:37:54.370Z,18.40
2018-03-28T16:40:24.173Z,18.50
2018-03-28T16:42:51.749Z,18.40
2018-03-28T16:45:20.136Z,18.60
2018-03-28T16:47:48.522Z,18.60
2018-03-28T16:50:16.996Z,18.70
2018-03-28T16:52:45.478Z,18.60
2018-03-28T16:55:13.941Z,18.60
2018-03-28T16:57:41.624Z,18.60
2018-03-28T17:00:10.105Z,18.70
2018-03-28T17:02:38.826Z,18.80
2018-03-28T17:05:06.563Z,18.80
2018-03-28T17:07:34.935Z,18.80
2018-03-28T17:10:02.600Z,18.80
2018-03-28T17:12:31.085Z,18.80
2018-03-28T17:14:59.538Z,18.80
2018-03-28T17:17:27.211Z,18.80
2018-03-28T17:19:54.881Z,18.90
2018-03-28T17:22:22.757Z,18.90
2018-03-28T17:24:51.282Z,19.00
2018-03-28T17:27:19.727Z,19.10
2018-03-28T17:29:48.217Z,19.10
2018-03-28T17:32:16.756Z,19.00
2018-03-28T17:34:44.470Z,19.00
2018-03-28T17:37:12.821Z,19.10
2018-03-28T17:39:40.490Z,19.10
2018-03-28T17:42:08.190Z,19.10
2018-03-28T17:44:35.804Z,19.10
2018-03-28T17:47:03.403Z,19.10
2018-03-28T17:49:31.149Z,19.10
2018-03-28T17:51:59.488Z,19.20
2018-03-28T17:54:27.092Z,19.10
2018-03-28T17:56:55.513Z,19.20
2018-03-28T17:59:23.346Z,19.20
2018-03-28T18:01:51.691Z,19.30
2018-03-28T18:04:19.382Z,19.20
2018-03-28T18:06:47.877Z,19.30
2018-03-28T18:09:15.626Z,19.30
2018-03-28T18:11:43.290Z,19.30
2018-03-28T18:14:11.634Z,19.40
2018-03-28T18:16:39.236Z,19.40
2018-03-28T18:19:07.614Z,19.40
2018-03-28T18:21:36.036Z,19.40
2018-03-28T18:24:03.761Z,19.40
2018-03-28T18:26:31.431Z,19.40
2018-03-28T18:28:59.774Z,19.40
2018-03-28T18:31:27.665Z,19.40
2018-03-28T18:33:55.334Z,19.50
2018-03-28T18:36:25.053Z,19.60
2018-03-28T18:38:53.610Z,19.50
2018-03-28T18:41:21.270Z,19.50
2018-03-28T18:43:48.948Z,19.40
2018-03-28T18:46:16.545Z,19.50
2018-03-28T18:48:44.289Z,19.60
2018-03-28T18:51:12.883Z,19.60
2018-03-28T18:53:40.505Z,19.60
2018-03-28T18:56:09.601Z,19.60
2018-03-28T18:58:38.259Z,19.60
2018-03-28T19:01:05.878Z,19.70
2018-03-28T19:03:34.236Z,19.70
2018-03-28T19:06:02.639Z,19.70
2018-03-28T19:08:31.000Z,19.70
2018-03-28T19:10:58.573Z,19.70
2018-03-28T19:13:26.950Z,19.80
2018-03-28T19:15:55.509Z,19.80
2018-03-28T19:18:24.946Z,19.80
2018-03-28T19:20:53.447Z,19.80
2018-03-28T19:23:21.258Z,19.80
2018-03-28T19:25:48.837Z,19.90
2018-03-28T19:28:16.530Z,19.80
2018-03-28T19:30:44.898Z,19.50
2018-03-28T19:33:13.277Z,19.20
2018-03-28T19:35:41.630Z,19.00
2018-03-28T19:38:09.248Z,18.90
2018-03-28T19:40:36.969Z,18.70
2018-03-28T19:43:04.606Z,18.50
2018-03-28T19:45:32.198Z,18.30
2018-03-28T19:47:59.864Z,18.10
2018-03-28T19:50:27.535Z,18.00
2018-03-28T19:52:55.877Z,17.70
2018-03-28T19:55:24.657Z,17.60
2018-03-28T19:57:52.630Z,17.60
2018-03-28T20:00:21.178Z,17.40
2018-03-28T20:02:48.753Z,17.30
2018-03-28T20:05:16.359Z,17.20
2018-03-28T20:07:45.483Z,17.00
2018-03-28T20:10:13.828Z,17.00
2018-03-28T20:12:41.505Z,16.90
2018-03-28T20:15:09.085Z,16.90
2018-03-28T20:17:37.426Z,16.80
2018-03-28T20:20:04.993Z,16.70
2018-03-28T20:22:32.667Z,16.70
2018-03-28T20:25:00.253Z,16.70
2018-03-28T20:27:28.634Z,16.60
2018-03-28T20:29:57.024Z,16.50
2018-03-28T20:32:24.672Z,16.50
2018-03-28T20:34:53.108Z,16.40
2018-03-28T20:37:20.707Z,16.40
2018-03-28T20:39:49.045Z,16.40
2018-03-28T20:42:16.655Z,16.30
2018-03-28T20:47:14.638Z,16.30
2018-03-28T20:49:42.977Z,16.20
2018-03-28T20:52:10.541Z,16.20
2018-03-28T20:54:38.220Z,16.20
2018-03-28T20:57:05.796Z,16.20
2018-03-28T20:59:33.365Z,16.20
2018-03-28T21:02:01.703Z,16.10
2018-03-28T21:04:29.296Z,16.10
2018-03-28T21:06:56.871Z,16.10
2018-03-28T21:09:25.204Z,16.10
2018-03-28T21:11:53.109Z,16.00
2018-03-28T21:14:20.679Z,16.00
2018-03-28T21:16:49.054Z,16.00
2018-03-28T21:19:17.477Z,16.00
2018-03-28T21:21:45.095Z,16.00
2018-03-28T21:24:13.436Z,16.00
2018-03-28T21:26:41.137Z,15.90
2018-03-28T21:29:09.517Z,15.90
2018-03-28T21:31:37.853Z,15.90
2018-03-28T21:34:05.452Z,15.90
2018-03-28T21:36:33.177Z,15.90
2018-03-28T21:39:01.499Z,15.90
2018-03-28T21:41:29.841Z,15.90
2018-03-28T21:43:57.415Z,15.80
2018-03-28T21:46:24.985Z,15.90
2018-03-28T21:48:52.857Z,15.80
2018-03-28T21:51:21.251Z,15.80
2018-03-28T21:53:49.594Z,15.80
2018-03-28T21:56:17.169Z,15.80
2018-03-28T21:58:44.765Z,15.80
2018-03-28T22:01:13.192Z,15.80
2018-03-28T22:03:40.768Z,15.70
2018-03-28T22:06:08.455Z,15.80
2018-03-28T22:08:36.838Z,15.70
2018-03-28T22:11:05.181Z,15.70
2018-03-28T22:13:32.744Z,15.70
2018-03-28T22:16:00.333Z,15.70
2018-03-28T22:18:27.990Z,15.70
2018-03-28T22:20:55.568Z,15.70
2018-03-28T22:23:25.277Z,15.70
2018-03-28T22:25:53.860Z,15.70
2018-03-28T22:28:22.357Z,15.70
2018-03-28T22:30:50.688Z,15.60
2018-03-28T22:33:18.262Z,15.60
2018-03-28T22:35:45.943Z,15.60
2018-03-28T22:38:14.295Z,15.60
2018-03-28T22:40:41.873Z,15.60
2018-03-28T22:43:09.553Z,15.60
2018-03-28T22:45:37.929Z,15.60
2018-03-28T22:48:06.309Z,15.60
2018-03-28T22:50:34.649Z,15.60
2018-03-28T22:53:02.245Z,15.60
2018-03-28T22:55:29.907Z,15.60
2018-03-28T22:57:58.290Z,15.60
2018-03-28T23:00:26.671Z,15.60
2018-03-28T23:02:55.002Z,15.60
2018-03-28T23:05:22.906Z,15.60
2018-03-28T23:07:50.578Z,15.50
2018-03-28T23:10:18.241Z,15.50
2018-03-28T23:12:46.627Z,15.50
2018-03-28T23:15:15.000Z,15.50
2018-03-28T23:17:43.359Z,15.50
2018-03-28T23:20:10.947Z,15.50
2018-03-28T23:22:39.285Z,15.50
2018-03-28T23:25:06.864Z,15.50
2018-03-28T23:27:34.459Z,15.50
2018-03-28T23:30:02.035Z,15.50
2018-03-28T23:32:29.635Z,15.50
2018-03-28T23:34:57.210Z,15.50
2018-03-28T23:37:25.543Z,15.50
2018-03-28T23:39:53.228Z,15.40
2018-03-28T23:42:20.878Z,15.40
2018-03-28T23:44:49.277Z,15.40
2018-03-28T23:47:16.875Z,15.40
2018-03-28T23:49:45.263Z,15.40
2018-03-28T23:52:13.641Z,15.40
2018-03-28T23:54:41.980Z,15.40
2018-03-28T23:57:09.554Z,15.40
2018-03-28T23:59:37.140Z,15.40
